createdAt,value
2018-08-16T00:00:43.906Z,14.50
2018-08-16T00:03:12.034Z,14.40
2018-08-16T00:05:40.158Z,14.40
2018-08-16T00:08:08.298Z,14.40
2018-08-16T00:10:36.495Z,14.30
2018-08-16T00:13:04.639Z,14.30
2018-08-16T00:15:32.767Z,14.30
2018-08-16T00:18:00.889Z,14.20
2018-08-16T00:20:29.017Z,14.20
2018-08-16T00:22:57.152Z,14.10
2018-08-16T00:25:25.274Z,14.20
2018-08-16T00:27:53.408Z,14.20
2018-08-16T00:30:21.551Z,14.10
2018-08-16T00:32:49.709Z,14.20
2018-08-16T00:35:17.840Z,14.00
2018-08-16T00:37:46.003Z,14.00
2018-08-16T00:40:15.306Z,14.10
2018-08-16T00:42:43.443Z,14.10
2018-08-16T00:45:11.950Z,14.10
2018-08-16T00:47:40.082Z,14.00
2018-08-16T00:50:10.622Z,14.00
2018-08-16T00:52:38.787Z,14.00
2018-08-16T00:55:08.042Z,13.90
2018-08-16T00:57:36.519Z,13.90
2018-08-16T01:00:06.005Z,13.90
2018-08-16T01:02:34.129Z,13.80
2018-08-16T01:05:02.260Z,13.70
2018-08-16T01:07:30.403Z,13.70
2018-08-16T01:09:58.494Z,13.70
2018-08-16T01:12:26.746Z,13.80
2018-08-16T01:14:54.846Z,13.60
2018-08-16T01:17:22.943Z,13.60
2018-08-16T01:19:51.028Z,13.60
2018-08-16T01:22:19.237Z,13.60
2018-08-16T01:24:47.350Z,13.60
2018-08-16T01:27:15.469Z,13.60
2018-08-16T01:29:43.563Z,13.60
2018-08-16T01:32:11.713Z,13.50
2018-08-16T01:34:39.809Z,13.40
2018-08-16T01:37:08.055Z,13.40
2018-08-16T01:39:36.158Z,13.40
2018-08-16T01:42:04.263Z,13.30
2018-08-16T01:44:32.362Z,13.30
2018-08-16T01:47:00.448Z,13.20
2018-08-16T01:49:33.591Z,13.20
2018-08-16T01:52:01.782Z,13.10
2018-08-16T01:54:30.566Z,13.10
2018-08-16T01:56:59.406Z,13.00
2018-08-16T01:59:27.518Z,13.00
2018-08-16T02:01:55.625Z,13.00
2018-08-16T02:04:23.746Z,13.00
2018-08-16T02:06:52.406Z,13.00
2018-08-16T02:09:21.341Z,12.90
2018-08-16T02:11:49.475Z,12.90
2018-08-16T02:14:18.065Z,12.90
2018-08-16T02:16:46.169Z,12.90
2018-08-16T02:19:14.283Z,12.80
2018-08-16T02:21:42.398Z,12.60
2018-08-16T02:24:10.509Z,12.60
2018-08-16T02:26:38.605Z,12.60
2018-08-16T02:29:06.740Z,12.60
2018-08-16T02:31:34.858Z,12.60
2018-08-16T02:34:02.948Z,12.60
2018-08-16T02:36:31.050Z,12.50
2018-08-16T02:38:59.145Z,12.50
2018-08-16T02:41:27.258Z,12.40
2018-08-16T02:43:55.369Z,12.40
2018-08-16T02:46:23.472Z,12.40
2018-08-16T02:48:51.572Z,12.40
2018-08-16T02:51:19.670Z,12.50
2018-08-16T02:53:47.786Z,12.40
2018-08-16T02:56:15.946Z,12.40
2018-08-16T02:58:44.030Z,12.40
2018-08-16T03:01:12.130Z,12.30
2018-08-16T03:03:40.258Z,12.30
2018-08-16T03:06:08.423Z,12.30
2018-08-16T03:08:36.495Z,12.30
2018-08-16T03:11:04.595Z,12.20
2018-08-16T03:13:32.678Z,12.20
2018-08-16T03:16:00.801Z,12.10
2018-08-16T03:18:28.921Z,12.10
2018-08-16T03:20:57.049Z,12.10
2018-08-16T03:23:25.147Z,12.10
2018-08-16T03:25:53.239Z,12.10
2018-08-16T03:28:21.325Z,12.00
2018-08-16T03:30:49.491Z,12.00
2018-08-16T03:33:17.585Z,12.00
2018-08-16T03:35:45.685Z,12.00
2018-08-16T03:38:13.786Z,11.90
2018-08-16T03:40:41.880Z,11.80
2018-08-16T03:43:09.999Z,11.80
2018-08-16T03:45:38.159Z,11.80
2018-08-16T03:48:06.306Z,11.70
2018-08-16T03:50:34.383Z,11.70
2018-08-16T03:53:02.478Z,11.70
2018-08-16T03:55:30.619Z,11.60
2018-08-16T03:57:58.724Z,11.60
2018-08-16T04:00:26.816Z,11.50
2018-08-16T04:02:54.912Z,11.60
2018-08-16T04:05:23.049Z,11.60
2018-08-16T04:07:51.153Z,11.60
2018-08-16T04:10:19.243Z,11.50
2018-08-16T04:12:47.349Z,11.50
2018-08-16T04:15:15.452Z,11.50
2018-08-16T04:17:43.550Z,11.40
2018-08-16T04:20:11.666Z,11.40
2018-08-16T04:22:49.736Z,11.40
2018-08-16T04:25:17.818Z,11.40
2018-08-16T04:27:45.931Z,11.30
2018-08-16T04:30:14.087Z,11.40
2018-08-16T04:32:42.175Z,11.30
2018-08-16T04:35:10.074Z,11.30
2018-08-16T04:37:38.153Z,11.30
2018-08-16T04:40:06.254Z,11.30
2018-08-16T04:42:34.380Z,11.30
2018-08-16T04:45:02.546Z,11.30
2018-08-16T04:47:30.679Z,11.30
2018-08-16T04:49:58.770Z,11.30
2018-08-16T04:52:26.855Z,11.30
2018-08-16T04:54:54.943Z,11.30
2018-08-16T04:57:23.027Z,11.40
2018-08-16T04:59:51.120Z,11.40
2018-08-16T05:02:19.280Z,11.40
2018-08-16T05:04:47.489Z,11.40
2018-08-16T05:07:15.574Z,11.50
2018-08-16T05:09:43.662Z,11.60
2018-08-16T05:12:11.754Z,11.60
2018-08-16T05:14:39.922Z,11.70
2018-08-16T05:17:08.166Z,11.80
2018-08-16T05:19:36.276Z,11.80
2018-08-16T05:22:04.379Z,11.80
2018-08-16T05:24:32.474Z,11.90
2018-08-16T05:27:00.645Z,11.90
2018-08-16T05:29:28.880Z,12.10
2018-08-16T05:31:57.109Z,12.20
2018-08-16T05:34:25.213Z,12.30
2018-08-16T05:36:53.321Z,12.50
2018-08-16T05:39:21.443Z,12.70
2018-08-16T05:41:49.563Z,12.90
2018-08-16T05:44:17.642Z,13.50
2018-08-16T05:46:45.971Z,14.60
2018-08-16T05:49:14.112Z,15.80
2018-08-16T05:51:42.219Z,17.20
2018-08-16T05:54:10.520Z,18.00
2018-08-16T05:56:38.621Z,18.70
2018-08-16T05:59:06.697Z,19.50
2018-08-16T06:01:35.090Z,20.00
2018-08-16T06:04:03.227Z,20.50
2018-08-16T06:06:31.658Z,20.90
2018-08-16T06:08:59.813Z,21.30
2018-08-16T06:11:28.594Z,22.00
2018-08-16T06:13:56.811Z,22.40
2018-08-16T06:16:24.891Z,22.60
2018-08-16T06:18:53.364Z,22.80
2018-08-16T06:21:21.486Z,23.20
2018-08-16T06:23:49.570Z,23.30
2018-08-16T06:26:17.874Z,23.60
2018-08-16T06:28:45.988Z,23.90
2018-08-16T06:31:14.248Z,24.50
2018-08-16T06:33:42.211Z,24.80
2018-08-16T06:36:10.359Z,24.80
2018-08-16T06:38:38.490Z,24.60
2018-08-16T06:41:06.642Z,25.20
2018-08-16T06:43:34.746Z,25.50
2018-08-16T06:46:02.857Z,25.60
2018-08-16T06:48:30.962Z,25.00
2018-08-16T06:50:59.050Z,25.00
2018-08-16T06:53:27.275Z,25.00
2018-08-16T06:55:55.363Z,25.30
2018-08-16T06:58:23.552Z,25.50
2018-08-16T07:00:51.547Z,26.20
2018-08-16T07:03:19.832Z,26.50
2018-08-16T07:05:48.003Z,26.90
2018-08-16T07:08:16.095Z,27.10
2018-08-16T07:10:44.183Z,27.10
2018-08-16T07:13:12.268Z,27.90
2018-08-16T07:15:40.355Z,27.50
2018-08-16T07:18:08.927Z,26.70
2018-08-16T07:20:37.178Z,26.60
2018-08-16T07:23:05.437Z,26.10
2018-08-16T07:25:33.531Z,26.60
2018-08-16T07:28:02.050Z,26.40
2018-08-16T07:30:30.238Z,27.50
2018-08-16T07:32:58.546Z,27.30
2018-08-16T07:35:26.707Z,28.60
2018-08-16T07:37:54.785Z,28.20
2018-08-16T07:40:22.908Z,27.70
2018-08-16T07:42:51.007Z,28.40
2018-08-16T07:45:19.193Z,29.00
2018-08-16T07:47:47.375Z,29.60
2018-08-16T07:50:15.488Z,30.50
2018-08-16T07:52:43.637Z,31.20
2018-08-16T07:55:11.716Z,30.30
2018-08-16T07:57:40.067Z,29.70
2018-08-16T08:00:13.197Z,30.00
2018-08-16T08:02:41.270Z,30.90
2018-08-16T08:05:09.358Z,30.30
2018-08-16T08:07:37.475Z,29.50
2018-08-16T08:10:05.599Z,29.70
2018-08-16T08:12:33.787Z,29.90
2018-08-16T08:15:01.871Z,30.80
2018-08-16T08:17:29.964Z,30.30
2018-08-16T08:19:58.046Z,31.50
2018-08-16T08:22:26.137Z,31.20
2018-08-16T08:24:54.225Z,32.50
2018-08-16T08:27:22.356Z,31.80
2018-08-16T08:29:50.554Z,32.90
2018-08-16T08:32:18.647Z,31.90
2018-08-16T08:34:46.730Z,32.40
2018-08-16T08:37:26.196Z,31.60
2018-08-16T08:39:54.378Z,31.70
2018-08-16T08:42:22.506Z,32.40
2018-08-16T08:44:50.598Z,33.00
2018-08-16T08:47:18.674Z,34.00
2018-08-16T08:49:46.751Z,33.20
2018-08-16T08:52:14.832Z,32.60
2018-08-16T08:54:57.442Z,31.90
2018-08-16T08:57:37.687Z,32.80
2018-08-16T09:00:06.042Z,33.80
2018-08-16T09:02:34.137Z,33.20
2018-08-16T09:05:02.239Z,31.90
2018-08-16T09:07:30.657Z,31.30
2018-08-16T09:11:13.224Z,31.20
2018-08-16T09:13:54.087Z,32.10
2018-08-16T09:16:31.303Z,32.40
2018-08-16T09:18:59.425Z,31.30
2018-08-16T09:21:28.182Z,31.20
2018-08-16T09:23:56.309Z,31.30
2018-08-16T09:26:29.778Z,31.90
2018-08-16T09:28:57.890Z,31.10
2018-08-16T09:31:37.489Z,31.10
2018-08-16T09:34:20.267Z,32.00
2018-08-16T09:36:48.602Z,32.60
2018-08-16T09:39:16.747Z,32.40
2018-08-16T09:41:44.873Z,33.60
2018-08-16T09:44:12.973Z,32.60
2018-08-16T09:47:07.976Z,33.60
2018-08-16T09:49:37.845Z,32.50
2018-08-16T09:52:06.505Z,31.30
2018-08-16T09:54:34.666Z,31.70
2018-08-16T09:57:03.950Z,32.20
2018-08-16T09:59:32.038Z,31.50
2018-08-16T10:02:00.190Z,32.10
2018-08-16T10:04:28.590Z,32.10
2018-08-16T10:06:56.802Z,31.10
2018-08-16T10:09:27.992Z,31.50
2018-08-16T10:11:56.974Z,30.70
2018-08-16T10:14:25.066Z,31.70
2018-08-16T10:16:53.182Z,33.00
2018-08-16T10:19:21.703Z,32.60
2018-08-16T10:21:49.775Z,32.40
2018-08-16T10:24:17.905Z,31.90
2018-08-16T10:26:46.129Z,31.90
2018-08-16T10:29:14.300Z,32.40
2018-08-16T10:31:42.374Z,33.70
2018-08-16T10:34:10.463Z,32.70
2018-08-16T10:36:38.561Z,33.40
2018-08-16T10:39:13.338Z,32.20
2018-08-16T10:41:41.444Z,33.00
2018-08-16T10:44:09.533Z,32.10
2018-08-16T10:46:37.626Z,33.00
2018-08-16T10:49:05.770Z,32.80
2018-08-16T10:51:33.895Z,32.50
2018-08-16T10:54:01.982Z,32.30
2018-08-16T10:56:30.062Z,32.30
2018-08-16T10:58:58.160Z,33.00
2018-08-16T11:01:26.376Z,33.30
2018-08-16T11:03:54.403Z,33.60
2018-08-16T11:06:22.487Z,33.80
2018-08-16T11:08:50.570Z,34.00
2018-08-16T11:11:18.660Z,34.50
2018-08-16T11:13:46.811Z,33.90
2018-08-16T11:16:14.902Z,33.60
2018-08-16T11:18:43.029Z,34.30
2018-08-16T11:21:11.063Z,34.20
2018-08-16T11:23:39.146Z,33.60
2018-08-16T11:26:07.280Z,33.50
2018-08-16T11:28:35.450Z,33.60
2018-08-16T11:31:03.532Z,34.30
2018-08-16T11:33:31.940Z,34.40
2018-08-16T11:36:00.018Z,32.80
2018-08-16T11:38:28.131Z,32.50
2018-08-16T11:40:56.271Z,32.80
2018-08-16T11:43:24.370Z,33.00
2018-08-16T11:45:52.458Z,34.00
2018-08-16T11:48:20.536Z,33.30
2018-08-16T11:50:48.670Z,34.30
2018-08-16T11:53:16.761Z,34.10
2018-08-16T11:55:44.858Z,34.30
2018-08-16T11:58:12.971Z,34.30
2018-08-16T12:00:41.061Z,33.30
2018-08-16T12:03:09.171Z,33.50
2018-08-16T12:05:37.287Z,33.60
2018-08-16T12:08:05.398Z,33.90
2018-08-16T12:10:33.471Z,34.10
2018-08-16T12:13:01.575Z,33.60
2018-08-16T12:15:29.662Z,32.60
2018-08-16T12:17:57.738Z,32.00
2018-08-16T12:20:25.823Z,33.00
2018-08-16T12:22:53.944Z,33.20
2018-08-16T12:25:22.039Z,34.10
2018-08-16T12:27:50.143Z,34.40
2018-08-16T12:30:18.246Z,34.00
2018-08-16T12:32:46.327Z,34.00
2018-08-16T12:35:14.463Z,33.40
2018-08-16T12:37:42.608Z,32.30
2018-08-16T12:40:10.683Z,31.90
2018-08-16T12:42:38.760Z,32.80
2018-08-16T12:45:06.918Z,32.70
2018-08-16T12:47:35.043Z,32.10
2018-08-16T12:50:03.118Z,32.60
2018-08-16T12:52:31.206Z,33.00
2018-08-16T12:54:59.306Z,32.90
2018-08-16T12:57:27.410Z,33.40
2018-08-16T12:59:55.495Z,33.50
2018-08-16T13:02:23.626Z,32.50
2018-08-16T13:04:51.738Z,32.40
2018-08-16T13:07:19.824Z,32.90
2018-08-16T13:09:47.914Z,32.50
2018-08-16T13:12:16.007Z,33.00
2018-08-16T13:14:44.094Z,32.70
2018-08-16T13:17:12.178Z,32.80
2018-08-16T13:19:40.266Z,32.70
2018-08-16T13:22:08.398Z,33.00
2018-08-16T13:24:36.506Z,33.20
2018-08-16T13:27:04.956Z,33.00
2018-08-16T13:29:33.046Z,33.20
2018-08-16T13:32:01.139Z,33.00
2018-08-16T13:34:29.243Z,32.60
2018-08-16T13:36:57.372Z,33.00
2018-08-16T13:39:25.444Z,33.10
2018-08-16T13:41:53.850Z,32.90
2018-08-16T13:44:22.013Z,32.70
2018-08-16T13:46:50.201Z,32.60
2018-08-16T13:49:18.267Z,32.40
2018-08-16T13:51:46.363Z,32.30
2018-08-16T13:54:14.466Z,32.40
2018-08-16T13:56:42.612Z,32.20
2018-08-16T13:59:10.729Z,32.30
2018-08-16T14:01:38.844Z,31.30
2018-08-16T14:04:07.066Z,31.60
2018-08-16T14:06:35.153Z,31.50
2018-08-16T14:09:04.317Z,31.60
2018-08-16T14:11:32.406Z,31.80
2018-08-16T14:14:00.487Z,31.30
2018-08-16T14:16:28.590Z,31.50
2018-08-16T14:18:56.691Z,31.30
2018-08-16T14:21:24.776Z,31.20
2018-08-16T14:23:52.860Z,31.10
2018-08-16T14:26:20.977Z,31.20
2018-08-16T14:28:49.091Z,30.90
2018-08-16T14:31:17.171Z,30.70
2018-08-16T14:33:45.251Z,30.70
2018-08-16T14:36:13.350Z,30.90
2018-08-16T14:38:41.571Z,31.10
2018-08-16T14:41:09.637Z,30.80
2018-08-16T14:43:37.786Z,30.60
2018-08-16T14:46:05.898Z,30.40
2018-08-16T14:48:34.015Z,30.10
2018-08-16T14:51:02.125Z,30.20
2018-08-16T14:53:30.275Z,30.20
2018-08-16T14:55:58.384Z,30.10
2018-08-16T14:58:26.475Z,30.00
2018-08-16T15:00:54.567Z,29.90
2018-08-16T15:03:22.673Z,30.10
2018-08-16T15:05:50.786Z,30.10
2018-08-16T15:08:18.889Z,30.20
2018-08-16T15:10:47.005Z,30.10
2018-08-16T15:13:15.071Z,29.60
2018-08-16T15:15:43.206Z,29.80
2018-08-16T15:18:11.301Z,29.60
2018-08-16T15:20:39.394Z,29.90
2018-08-16T15:23:07.517Z,29.80
2018-08-16T15:25:35.615Z,29.80
2018-08-16T15:28:03.705Z,29.90
2018-08-16T15:30:31.793Z,29.80
2018-08-16T15:32:59.870Z,29.90
2018-08-16T15:35:27.951Z,29.80
2018-08-16T15:37:56.038Z,29.90
2018-08-16T15:40:24.151Z,29.90
2018-08-16T15:42:52.237Z,29.80
2018-08-16T15:45:20.327Z,29.70
2018-08-16T15:47:48.430Z,29.70
2018-08-16T15:50:16.539Z,29.80
2018-08-16T15:52:44.642Z,29.70
2018-08-16T15:55:12.725Z,29.50
2018-08-16T15:57:40.814Z,29.50
2018-08-16T16:00:10.802Z,29.50
2018-08-16T16:02:39.287Z,29.50
2018-08-16T16:05:07.391Z,29.50
2018-08-16T16:07:35.470Z,29.50
2018-08-16T16:10:03.608Z,29.50
2018-08-16T16:12:31.683Z,29.40
2018-08-16T16:14:59.769Z,29.40
2018-08-16T16:17:28.007Z,29.50
2018-08-16T16:19:56.793Z,29.50
2018-08-16T16:22:24.913Z,29.40
2018-08-16T16:24:53.078Z,29.30
2018-08-16T16:27:21.114Z,29.20
2018-08-16T16:29:49.199Z,29.20
2018-08-16T16:32:17.302Z,29.20
2018-08-16T16:34:45.391Z,29.10
2018-08-16T16:37:13.602Z,29.00
2018-08-16T16:39:41.737Z,29.00
2018-08-16T16:42:09.820Z,29.10
2018-08-16T16:44:37.942Z,29.00
2018-08-16T16:47:06.726Z,29.00
2018-08-16T16:49:34.815Z,28.90
2018-08-16T16:52:03.237Z,28.90
2018-08-16T16:54:31.334Z,28.90
2018-08-16T16:56:59.433Z,28.90
2018-08-16T16:59:27.545Z,28.80
2018-08-16T17:01:55.646Z,28.80
2018-08-16T17:04:23.891Z,28.80
2018-08-16T17:06:52.058Z,28.80
2018-08-16T17:09:20.154Z,28.70
2018-08-16T17:11:48.274Z,28.80
2018-08-16T17:14:16.421Z,28.70
2018-08-16T17:16:44.503Z,28.60
2018-08-16T17:19:12.662Z,28.50
2018-08-16T17:21:40.758Z,28.50
2018-08-16T17:24:08.839Z,28.50
2018-08-16T17:26:36.962Z,28.50
2018-08-16T17:29:05.064Z,28.40
2018-08-16T17:31:33.176Z,28.40
2018-08-16T17:34:01.285Z,28.20
2018-08-16T17:36:29.372Z,28.10
2018-08-16T17:38:57.471Z,28.00
2018-08-16T17:41:25.570Z,28.00
2018-08-16T17:43:53.677Z,27.70
2018-08-16T17:46:21.758Z,27.60
2018-08-16T17:48:54.516Z,27.40
2018-08-16T17:51:22.699Z,27.10
2018-08-16T17:53:50.790Z,26.90
2018-08-16T17:56:18.922Z,26.60
2018-08-16T17:58:47.052Z,26.40
2018-08-16T18:01:15.147Z,26.20
2018-08-16T18:03:43.763Z,26.00
2018-08-16T18:06:11.850Z,25.70
2018-08-16T18:08:39.940Z,25.50
2018-08-16T18:11:08.053Z,25.20
2018-08-16T18:13:36.135Z,25.00
2018-08-16T18:16:04.235Z,24.80
2018-08-16T18:18:32.485Z,24.50
2018-08-16T18:21:00.604Z,24.30
2018-08-16T18:23:28.719Z,24.00
2018-08-16T18:25:56.798Z,23.80
2018-08-16T18:28:24.902Z,23.60
2018-08-16T18:30:52.992Z,23.50
2018-08-16T18:33:21.077Z,23.20
2018-08-16T18:35:49.194Z,23.00
2018-08-16T18:38:17.263Z,22.90
2018-08-16T18:40:45.361Z,22.70
2018-08-16T18:43:13.446Z,22.50
2018-08-16T18:45:41.531Z,22.40
2018-08-16T18:48:09.627Z,22.10
2018-08-16T18:50:37.781Z,21.90
2018-08-16T18:53:05.862Z,21.80
2018-08-16T18:55:33.971Z,21.50
2018-08-16T18:58:02.082Z,21.40
2018-08-16T19:00:30.178Z,21.30
2018-08-16T19:02:58.327Z,21.20
2018-08-16T19:05:26.467Z,21.00
2018-08-16T19:07:54.536Z,20.90
2018-08-16T19:10:23.675Z,20.70
2018-08-16T19:12:51.759Z,20.60
2018-08-16T19:15:19.846Z,20.40
2018-08-16T19:17:47.942Z,20.30
2018-08-16T19:20:16.033Z,20.20
2018-08-16T19:22:44.129Z,20.10
2018-08-16T19:25:12.245Z,20.00
2018-08-16T19:27:40.319Z,19.80
2018-08-16T19:30:08.414Z,19.70
2018-08-16T19:32:36.574Z,19.70
2018-08-16T19:35:04.954Z,19.50
2018-08-16T19:37:33.058Z,19.50
2018-08-16T19:40:01.170Z,19.40
2018-08-16T19:42:29.319Z,19.50
2018-08-16T19:45:10.906Z,19.40
2018-08-16T19:47:38.994Z,19.50
2018-08-16T19:50:08.695Z,19.40
2018-08-16T19:52:36.823Z,19.20
2018-08-16T19:55:06.254Z,19.30
2018-08-16T19:57:34.626Z,19.20
2018-08-16T20:00:02.727Z,19.00
2018-08-16T20:02:30.810Z,19.10
2018-08-16T20:04:58.916Z,19.00
2018-08-16T20:07:26.993Z,19.00
2018-08-16T20:09:55.116Z,18.90
2018-08-16T20:12:23.186Z,18.80
2018-08-16T20:14:51.283Z,18.80
2018-08-16T20:17:19.410Z,18.70
2018-08-16T20:19:47.578Z,18.50
2018-08-16T20:22:18.031Z,18.50
2018-08-16T20:24:46.515Z,18.40
2018-08-16T20:27:14.717Z,18.50
2018-08-16T20:29:42.966Z,18.50
2018-08-16T20:32:11.093Z,18.50
2018-08-16T20:34:39.228Z,18.30
2018-08-16T20:37:07.329Z,18.20
2018-08-16T20:39:35.438Z,18.10
2018-08-16T20:42:03.606Z,18.00
2018-08-16T20:44:31.703Z,18.10
2018-08-16T20:46:59.846Z,18.10
2018-08-16T20:49:27.948Z,18.10
2018-08-16T20:51:56.063Z,18.00
2018-08-16T20:54:26.205Z,17.90
2018-08-16T20:56:54.303Z,17.90
2018-08-16T20:59:22.390Z,17.70
2018-08-16T21:01:50.531Z,17.70
2018-08-16T21:04:18.655Z,17.70
2018-08-16T21:07:00.178Z,17.70
2018-08-16T21:09:28.275Z,17.70
2018-08-16T21:11:56.371Z,17.70
2018-08-16T21:14:24.512Z,17.60
2018-08-16T21:16:54.613Z,17.60
2018-08-16T21:19:22.762Z,17.50
2018-08-16T21:21:50.927Z,17.40
2018-08-16T21:24:23.979Z,17.40
2018-08-16T21:26:52.085Z,17.40
2018-08-16T21:29:20.207Z,17.30
2018-08-16T21:31:48.338Z,17.30
2018-08-16T21:34:16.440Z,17.30
2018-08-16T21:36:44.543Z,17.30
2018-08-16T21:39:12.987Z,17.30
2018-08-16T21:41:41.094Z,17.10
2018-08-16T21:44:10.055Z,17.10
2018-08-16T21:46:38.186Z,17.00
2018-08-16T21:49:06.276Z,17.00
2018-08-16T21:51:34.373Z,16.90
2018-08-16T21:54:02.582Z,16.80
2018-08-16T21:56:30.698Z,16.80
2018-08-16T21:59:01.423Z,16.90
2018-08-16T22:01:29.529Z,16.80
2018-08-16T22:03:57.770Z,16.80
2018-08-16T22:09:16.519Z,16.70
2018-08-16T22:11:44.610Z,16.60
2018-08-16T22:14:12.713Z,16.60
2018-08-16T22:16:40.802Z,16.40
2018-08-16T22:19:08.902Z,16.40
2018-08-16T22:21:37.040Z,16.40
2018-08-16T22:24:12.891Z,16.40
2018-08-16T22:26:41.001Z,16.30
2018-08-16T22:29:09.094Z,16.30
2018-08-16T22:31:38.346Z,16.30
2018-08-16T22:34:06.499Z,16.20
2018-08-16T22:36:34.551Z,16.10
2018-08-16T22:39:02.627Z,16.10
2018-08-16T22:41:31.406Z,16.10
2018-08-16T22:43:59.526Z,16.00
2018-08-16T22:46:27.763Z,16.10
2018-08-16T22:48:55.855Z,16.00
2018-08-16T22:51:23.962Z,16.00
2018-08-16T22:53:52.060Z,16.00
2018-08-16T22:56:20.170Z,16.00
2018-08-16T22:58:48.312Z,16.00
2018-08-16T23:01:16.412Z,15.90
2018-08-16T23:03:44.493Z,15.90
2018-08-16T23:06:12.623Z,15.90
2018-08-16T23:08:40.723Z,15.80
2018-08-16T23:11:08.843Z,15.80
2018-08-16T23:13:37.105Z,15.70
2018-08-16T23:16:05.223Z,15.70
2018-08-16T23:18:34.055Z,15.60
2018-08-16T23:21:02.127Z,15.50
2018-08-16T23:23:30.217Z,15.50
2018-08-16T23:25:58.315Z,15.40
2018-08-16T23:28:26.406Z,15.50
2018-08-16T23:30:54.497Z,15.50
2018-08-16T23:33:22.579Z,15.50
2018-08-16T23:35:50.675Z,15.50
2018-08-16T23:38:18.810Z,15.40
2018-08-16T23:40:46.930Z,15.40
2018-08-16T23:43:15.068Z,15.40
2018-08-16T23:45:43.150Z,15.40
2018-08-16T23:48:22.734Z,15.30
2018-08-16T23:50:50.876Z,15.40
2018-08-16T23:53:18.974Z,15.40
2018-08-16T23:55:47.057Z,15.20
2018-08-16T23:58:15.962Z,15.20
